sensor_id;sensor_type;location;lat;lon;timestamp;pressure;altitude;pressure_sealevel;temperature;humidity
66381;BME280;53177;52.648;1.214;2022-11-12T00:02:12;102362.47;;;9.72;100.00
66381;BME280;53177;52.648;1.214;2022-11-12T00:04:37;102357.28;;;9.57;100.00
66381;BME280;53177;52.648;1.214;2022-11-12T00:07:03;102362.84;;;9.56;100.00
66381;BME280;53177;52.648;1.214;2022-11-12T00:09:28;102361.59;;;9.52;100.00
66381;BME280;53177;52.648;1.214;2022-11-12T00:11:54;102364.50;;;9.57;100.00
66381;BME280;53177;52.648;1.214;2022-11-12T00:14:19;102356.47;;;9.57;100.00
66381;BME280;53177;52.648;1.214;2022-11-12T00:16:44;102363.03;;;9.54;100.00
66381;BME280;53177;52.648;1.214;2022-11-12T00:19:10;102361.59;;;9.52;100.00
66381;BME280;53177;52.648;1.214;2022-11-12T00:21:35;102349.94;;;9.31;100.00
66381;BME280;53177;52.648;1.214;2022-11-12T00:24:01;102351.22;;;9.35;100.00
66381;BME280;53177;52.648;1.214;2022-11-12T00:26:26;102347.06;;;9.33;100.00
66381;BME280;53177;52.648;1.214;2022-11-12T00:28:52;102349.50;;;9.21;100.00
66381;BME280;53177;52.648;1.214;2022-11-12T00:31:17;102347.47;;;9.30;100.00
66381;BME280;53177;52.648;1.214;2022-11-12T00:33:43;102352.81;;;9.23;100.00
66381;BME280;53177;52.648;1.214;2022-11-12T00:36:09;102360.69;;;9.31;100.00
66381;BME280;53177;52.648;1.214;2022-11-12T00:38:35;102364.22;;;9.39;100.00
66381;BME280;53177;52.648;1.214;2022-11-12T00:41:01;102365.63;;;9.28;100.00
66381;BME280;53177;52.648;1.214;2022-11-12T00:43:26;102367.69;;;9.32;100.00
66381;BME280;53177;52.648;1.214;2022-11-12T00:45:52;102368.88;;;9.23;100.00
66381;BME280;53177;52.648;1.214;2022-11-12T00:48:18;102368.44;;;9.13;100.00
66381;BME280;53177;52.648;1.214;2022-11-12T00:50:43;102368.19;;;9.08;100.00
66381;BME280;53177;52.648;1.214;2022-11-12T00:53:08;102370.91;;;9.15;100.00
66381;BME280;53177;52.648;1.214;2022-11-12T00:55:34;102375.88;;;9.18;100.00
66381;BME280;53177;52.648;1.214;2022-11-12T00:57:59;102372.84;;;8.93;100.00
66381;BME280;53177;52.648;1.214;2022-11-12T01:00:26;102375.69;;;8.84;100.00
66381;BME280;53177;52.648;1.214;2022-11-12T01:02:51;102375.78;;;8.98;100.00
66381;BME280;53177;52.648;1.214;2022-11-12T01:05:18;102370.81;;;8.95;100.00
66381;BME280;53177;52.648;1.214;2022-11-12T01:07:44;102366.72;;;8.99;100.00
66381;BME280;53177;52.648;1.214;2022-11-12T01:10:10;102372.59;;;8.88;100.00
66381;BME280;53177;52.648;1.214;2022-11-12T01:12:36;102369.06;;;8.80;100.00
66381;BME280;53177;52.648;1.214;2022-11-12T01:15:04;102374.44;;;8.80;100.00
66381;BME280;53177;52.648;1.214;2022-11-12T01:17:31;102372.44;;;8.89;100.00
66381;BME280;53177;52.648;1.214;2022-11-12T01:19:57;102384.41;;;8.93;100.00
66381;BME280;53177;52.648;1.214;2022-11-12T01:22:23;102381.69;;;8.86;100.00
66381;BME280;53177;52.648;1.214;2022-11-12T01:24:48;102385.78;;;8.82;100.00
66381;BME280;53177;52.648;1.214;2022-11-12T01:27:14;102377.72;;;8.82;100.00
66381;BME280;53177;52.648;1.214;2022-11-12T01:29:39;102371.41;;;8.62;100.00
66381;BME280;53177;52.648;1.214;2022-11-12T01:32:05;102377.16;;;8.59;100.00
66381;BME280;53177;52.648;1.214;2022-11-12T01:34:31;102382.16;;;8.69;100.00
66381;BME280;53177;52.648;1.214;2022-11-12T01:36:56;102384.53;;;8.57;100.00
66381;BME280;53177;52.648;1.214;2022-11-12T01:39:22;102380.63;;;8.53;100.00
66381;BME280;53177;52.648;1.214;2022-11-12T01:41:47;102379.75;;;8.52;100.00
66381;BME280;53177;52.648;1.214;2022-11-12T01:44:17;102372.59;;;8.53;100.00
66381;BME280;53177;52.648;1.214;2022-11-12T01:47:06;102368.38;;;8.44;100.00
66381;BME280;53177;52.648;1.214;2022-11-12T01:49:42;102374.00;;;8.49;100.00
66381;BME280;53177;52.648;1.214;2022-11-12T01:54:40;102370.88;;;8.45;100.00
66381;BME280;53177;52.648;1.214;2022-11-12T01:57:08;102372.31;;;8.26;100.00
66381;BME280;53177;52.648;1.214;2022-11-12T01:59:38;102373.59;;;8.30;100.00
66381;BME280;53177;52.648;1.214;2022-11-12T02:02:05;102371.16;;;8.35;100.00
66381;BME280;53177;52.648;1.214;2022-11-12T02:04:31;102365.97;;;8.49;100.00
66381;BME280;53177;52.648;1.214;2022-11-12T02:06:57;102371.69;;;8.46;100.00
66381;BME280;53177;52.648;1.214;2022-11-12T02:09:24;102354.44;;;8.33;100.00
66381;BME280;53177;52.648;1.214;2022-11-12T02:11:50;102355.16;;;8.21;100.00
66381;BME280;53177;52.648;1.214;2022-11-12T02:14:15;102359.50;;;8.22;100.00
66381;BME280;53177;52.648;1.214;2022-11-12T02:16:43;102353.72;;;8.18;100.00
66381;BME280;53177;52.648;1.214;2022-11-12T02:19:12;102344.53;;;8.06;100.00
66381;BME280;53177;52.648;1.214;2022-11-12T02:21:38;102349.75;;;8.14;100.00
66381;BME280;53177;52.648;1.214;2022-11-12T02:24:05;102347.78;;;8.23;100.00
66381;BME280;53177;52.648;1.214;2022-11-12T02:26:33;102341.19;;;8.25;100.00
66381;BME280;53177;52.648;1.214;2022-11-12T02:29:00;102339.34;;;8.26;100.00
66381;BME280;53177;52.648;1.214;2022-11-12T02:31:26;102336.88;;;8.03;100.00
66381;BME280;53177;52.648;1.214;2022-11-12T02:33:52;102330.13;;;8.07;100.00
66381;BME280;53177;52.648;1.214;2022-11-12T02:36:17;102327.09;;;8.17;100.00
66381;BME280;53177;52.648;1.214;2022-11-12T02:38:43;102327.38;;;8.22;100.00
66381;BME280;53177;52.648;1.214;2022-11-12T02:41:08;102318.47;;;7.93;100.00
66381;BME280;53177;52.648;1.214;2022-11-12T02:43:34;102313.44;;;7.83;100.00
66381;BME280;53177;52.648;1.214;2022-11-12T02:45:59;102319.94;;;7.96;100.00
66381;BME280;53177;52.648;1.214;2022-11-12T02:48:25;102318.97;;;8.03;100.00
66381;BME280;53177;52.648;1.214;2022-11-12T02:50:50;102318.13;;;8.03;100.00
66381;BME280;53177;52.648;1.214;2022-11-12T02:53:16;102317.75;;;8.06;100.00
66381;BME280;53177;52.648;1.214;2022-11-12T02:55:42;102302.72;;;7.83;100.00
66381;BME280;53177;52.648;1.214;2022-11-12T02:58:07;102303.34;;;7.85;100.00
66381;BME280;53177;52.648;1.214;2022-11-12T03:00:33;102315.22;;;7.98;100.00
66381;BME280;53177;52.648;1.214;2022-11-12T03:02:58;102305.28;;;7.92;100.00
66381;BME280;53177;52.648;1.214;2022-11-12T03:05:29;102308.44;;;7.80;100.00
66381;BME280;53177;52.648;1.214;2022-11-12T03:07:59;102308.53;;;7.87;100.00
66381;BME280;53177;52.648;1.214;2022-11-12T03:10:27;102309.84;;;7.98;100.00
66381;BME280;53177;52.648;1.214;2022-11-12T03:12:55;102299.97;;;7.98;100.00
66381;BME280;53177;52.648;1.214;2022-11-12T03:15:21;102310.25;;;7.95;100.00
66381;BME280;53177;52.648;1.214;2022-11-12T03:17:47;102308.13;;;7.90;100.00
66381;BME280;53177;52.648;1.214;2022-11-12T03:20:13;102309.34;;;7.88;100.00
66381;BME280;53177;52.648;1.214;2022-11-12T03:22:40;102310.63;;;7.92;100.00
66381;BME280;53177;52.648;1.214;2022-11-12T03:25:06;102315.09;;;7.84;100.00
66381;BME280;53177;52.648;1.214;2022-11-12T03:27:32;102311.00;;;7.89;100.00
66381;BME280;53177;52.648;1.214;2022-11-12T03:29:58;102304.78;;;7.81;100.00
66381;BME280;53177;52.648;1.214;2022-11-12T03:32:23;102300.81;;;7.56;100.00
66381;BME280;53177;52.648;1.214;2022-11-12T03:34:49;102293.09;;;7.31;100.00
66381;BME280;53177;52.648;1.214;2022-11-12T03:37:14;102296.03;;;7.37;100.00
66381;BME280;53177;52.648;1.214;2022-11-12T03:39:40;102296.41;;;7.48;100.00
66381;BME280;53177;52.648;1.214;2022-11-12T03:42:05;102303.28;;;7.57;100.00
66381;BME280;53177;52.648;1.214;2022-11-12T03:44:31;102307.81;;;7.57;100.00
66381;BME280;53177;52.648;1.214;2022-11-12T03:46:57;102293.16;;;7.53;100.00
66381;BME280;53177;52.648;1.214;2022-11-12T03:49:22;102287.31;;;7.64;100.00
66381;BME280;53177;52.648;1.214;2022-11-12T03:51:47;102281.44;;;7.54;100.00
66381;BME280;53177;52.648;1.214;2022-11-12T03:54:13;102286.03;;;7.60;100.00
66381;BME280;53177;52.648;1.214;2022-11-12T03:56:38;102287.09;;;7.44;100.00
66381;BME280;53177;52.648;1.214;2022-11-12T03:59:04;102293.72;;;7.12;100.00
66381;BME280;53177;52.648;1.214;2022-11-12T04:01:30;102293.50;;;7.28;100.00
66381;BME280;53177;52.648;1.214;2022-11-12T04:03:55;102298.72;;;7.37;100.00
66381;BME280;53177;52.648;1.214;2022-11-12T04:06:21;102297.53;;;7.39;100.00
66381;BME280;53177;52.648;1.214;2022-11-12T04:09:05;102295.94;;;7.45;100.00
66381;BME280;53177;52.648;1.214;2022-11-12T04:11:30;102288.38;;;7.48;100.00
66381;BME280;53177;52.648;1.214;2022-11-12T04:13:55;102293.16;;;7.53;100.00
66381;BME280;53177;52.648;1.214;2022-11-12T04:16:21;102292.13;;;7.54;100.00
66381;BME280;53177;52.648;1.214;2022-11-12T04:19:09;102292.53;;;7.51;100.00
66381;BME280;53177;52.648;1.214;2022-11-12T04:21:58;102293.41;;;7.58;100.00
66381;BME280;53177;52.648;1.214;2022-11-12T04:24:29;102290.69;;;7.51;100.00
66381;BME280;53177;52.648;1.214;2022-11-12T04:27:19;102290.59;;;7.45;100.00
66381;BME280;53177;52.648;1.214;2022-11-12T04:29:46;102287.69;;;7.61;100.00
66381;BME280;53177;52.648;1.214;2022-11-12T04:32:32;102282.59;;;7.66;100.00
66381;BME280;53177;52.648;1.214;2022-11-12T04:34:58;102281.88;;;7.57;100.00
66381;BME280;53177;52.648;1.214;2022-11-12T04:37:25;102279.88;;;7.59;100.00
66381;BME280;53177;52.648;1.214;2022-11-12T04:39:51;102277.56;;;7.56;100.00
66381;BME280;53177;52.648;1.214;2022-11-12T04:42:18;102289.91;;;7.57;100.00
66381;BME280;53177;52.648;1.214;2022-11-12T04:45:07;102281.06;;;7.57;100.00
66381;BME280;53177;52.648;1.214;2022-11-12T04:47:35;102289.19;;;7.49;100.00
66381;BME280;53177;52.648;1.214;2022-11-12T04:50:04;102280.91;;;7.44;100.00
66381;BME280;53177;52.648;1.214;2022-11-12T04:52:30;102287.91;;;7.45;100.00
66381;BME280;53177;52.648;1.214;2022-11-12T04:54:56;102282.91;;;7.20;100.00
66381;BME280;53177;52.648;1.214;2022-11-12T04:57:22;102288.59;;;7.32;100.00
66381;BME280;53177;52.648;1.214;2022-11-12T04:59:47;102292.53;;;7.36;100.00
66381;BME280;53177;52.648;1.214;2022-11-12T05:02:14;102294.13;;;7.30;100.00
66381;BME280;53177;52.648;1.214;2022-11-12T05:04:40;102288.00;;;7.15;100.00
66381;BME280;53177;52.648;1.214;2022-11-12T05:07:05;102292.34;;;7.01;100.00
66381;BME280;53177;52.648;1.214;2022-11-12T05:09:31;102294.47;;;7.06;100.00
66381;BME280;53177;52.648;1.214;2022-11-12T05:11:56;102293.97;;;7.17;100.00
66381;BME280;53177;52.648;1.214;2022-11-12T05:14:23;102295.00;;;7.16;100.00
66381;BME280;53177;52.648;1.214;2022-11-12T05:16:49;102302.56;;;7.13;100.00
66381;BME280;53177;52.648;1.214;2022-11-12T05:19:14;102304.47;;;7.19;100.00
66381;BME280;53177;52.648;1.214;2022-11-12T05:21:40;102305.03;;;7.14;100.00
66381;BME280;53177;52.648;1.214;2022-11-12T05:24:24;102290.84;;;7.14;100.00
66381;BME280;53177;52.648;1.214;2022-11-12T05:26:49;102289.75;;;7.08;100.00
66381;BME280;53177;52.648;1.214;2022-11-12T05:29:15;102300.72;;;7.13;100.00
66381;BME280;53177;52.648;1.214;2022-11-12T05:31:41;102286.97;;;7.16;100.00
66381;BME280;53177;52.648;1.214;2022-11-12T05:34:06;102285.44;;;7.07;100.00
66381;BME280;53177;52.648;1.214;2022-11-12T05:36:32;102295.59;;;6.97;100.00
66381;BME280;53177;52.648;1.214;2022-11-12T05:38:58;102296.84;;;7.01;100.00
66381;BME280;53177;52.648;1.214;2022-11-12T05:41:24;102287.56;;;6.97;100.00
66381;BME280;53177;52.648;1.214;2022-11-12T05:43:49;102280.09;;;7.07;100.00
66381;BME280;53177;52.648;1.214;2022-11-12T05:46:14;102286.81;;;7.03;100.00
66381;BME280;53177;52.648;1.214;2022-11-12T05:48:40;102292.06;;;7.11;100.00
66381;BME280;53177;52.648;1.214;2022-11-12T05:51:05;102290.84;;;7.14;100.00
66381;BME280;53177;52.648;1.214;2022-11-12T05:53:31;102290.56;;;7.08;100.00
66381;BME280;53177;52.648;1.214;2022-11-12T05:56:03;102287.75;;;7.10;100.00
66381;BME280;53177;52.648;1.214;2022-11-12T05:58:29;102290.28;;;7.18;100.00
66381;BME280;53177;52.648;1.214;2022-11-12T06:00:56;102286.16;;;7.01;100.00
66381;BME280;53177;52.648;1.214;2022-11-12T06:03:21;102289.13;;;7.06;100.00
66381;BME280;53177;52.648;1.214;2022-11-12T06:05:47;102295.00;;;7.16;100.00
66381;BME280;53177;52.648;1.214;2022-11-12T06:08:12;102298.69;;;7.15;100.00
66381;BME280;53177;52.648;1.214;2022-11-12T06:10:38;102302.75;;;7.11;100.00
66381;BME280;53177;52.648;1.214;2022-11-12T06:13:03;102291.31;;;7.17;100.00
66381;BME280;53177;52.648;1.214;2022-11-12T06:15:28;102313.06;;;7.14;100.00
66381;BME280;53177;52.648;1.214;2022-11-12T06:17:54;102309.19;;;7.17;100.00
66381;BME280;53177;52.648;1.214;2022-11-12T06:20:24;102308.88;;;7.26;100.00
66381;BME280;53177;52.648;1.214;2022-11-12T06:22:49;102302.16;;;7.30;100.00
66381;BME280;53177;52.648;1.214;2022-11-12T06:25:16;102299.47;;;7.30;100.00
66381;BME280;53177;52.648;1.214;2022-11-12T06:27:41;102303.44;;;7.34;100.00
66381;BME280;53177;52.648;1.214;2022-11-12T06:30:08;102293.38;;;7.37;100.00
66381;BME280;53177;52.648;1.214;2022-11-12T06:32:33;102296.44;;;7.33;100.00
66381;BME280;53177;52.648;1.214;2022-11-12T06:34:59;102300.75;;;7.34;100.00
66381;BME280;53177;52.648;1.214;2022-11-12T06:37:24;102302.69;;;7.41;100.00
66381;BME280;53177;52.648;1.214;2022-11-12T06:39:50;102311.00;;;7.46;100.00
66381;BME280;53177;52.648;1.214;2022-11-12T06:42:15;102303.97;;;7.45;100.00
66381;BME280;53177;52.648;1.214;2022-11-12T06:44:41;102304.53;;;7.40;100.00
66381;BME280;53177;52.648;1.214;2022-11-12T06:47:06;102301.94;;;7.47;100.00
66381;BME280;53177;52.648;1.214;2022-11-12T06:49:32;102310.47;;;7.57;100.00
66381;BME280;53177;52.648;1.214;2022-11-12T06:51:57;102302.81;;;7.54;100.00
66381;BME280;53177;52.648;1.214;2022-11-12T06:54:23;102305.13;;;7.57;100.00
66381;BME280;53177;52.648;1.214;2022-11-12T06:56:51;102300.44;;;7.59;100.00
66381;BME280;53177;52.648;1.214;2022-11-12T06:59:18;102299.59;;;7.58;100.00
66381;BME280;53177;52.648;1.214;2022-11-12T07:01:47;102295.34;;;7.64;100.00
66381;BME280;53177;52.648;1.214;2022-11-12T07:04:14;102303.78;;;7.68;100.00
66381;BME280;53177;52.648;1.214;2022-11-12T07:06:46;102296.88;;;7.73;100.00
66381;BME280;53177;52.648;1.214;2022-11-12T07:09:14;102298.16;;;7.77;100.00
66381;BME280;53177;52.648;1.214;2022-11-12T07:11:42;102303.09;;;7.80;100.00
66381;BME280;53177;52.648;1.214;2022-11-12T07:14:13;102305.19;;;7.85;100.00
66381;BME280;53177;52.648;1.214;2022-11-12T07:16:41;102294.75;;;7.90;100.00
66381;BME280;53177;52.648;1.214;2022-11-12T07:19:09;102296.22;;;7.93;100.00
66381;BME280;53177;52.648;1.214;2022-11-12T07:21:38;102305.28;;;7.92;100.00
66381;BME280;53177;52.648;1.214;2022-11-12T07:24:08;102310.63;;;7.92;100.00
66381;BME280;53177;52.648;1.214;2022-11-12T07:26:34;102313.56;;;7.97;100.00
66381;BME280;53177;52.648;1.214;2022-11-12T07:29:00;102315.88;;;8.00;100.00
66381;BME280;53177;52.648;1.214;2022-11-12T07:31:25;102311.59;;;8.05;100.00
66381;BME280;53177;52.648;1.214;2022-11-12T07:33:51;102309.53;;;8.07;100.00
66381;BME280;53177;52.648;1.214;2022-11-12T07:36:18;102313.56;;;8.18;100.00
66381;BME280;53177;52.648;1.214;2022-11-12T07:38:44;102323.59;;;8.16;100.00
66381;BME280;53177;52.648;1.214;2022-11-12T07:41:20;102324.50;;;8.23;100.00
66381;BME280;53177;52.648;1.214;2022-11-12T07:43:47;102329.84;;;8.23;100.00
66381;BME280;53177;52.648;1.214;2022-11-12T07:46:17;102328.22;;;8.22;100.00
66381;BME280;53177;52.648;1.214;2022-11-12T07:48:44;102326.16;;;8.24;100.00
66381;BME280;53177;52.648;1.214;2022-11-12T07:51:19;102333.16;;;8.25;100.00
66381;BME280;53177;52.648;1.214;2022-11-12T07:53:47;102326.63;;;8.34;100.00
66381;BME280;53177;52.648;1.214;2022-11-12T07:56:18;102318.91;;;8.40;100.00
66381;BME280;53177;52.648;1.214;2022-11-12T07:58:44;102318.72;;;8.41;100.00
66381;BME280;53177;52.648;1.214;2022-11-12T08:01:28;102322.66;;;8.45;100.00
66381;BME280;53177;52.648;1.214;2022-11-12T08:03:55;102322.88;;;8.50;100.00
66381;BME280;53177;52.648;1.214;2022-11-12T08:06:20;102319.25;;;8.58;100.00
66381;BME280;53177;52.648;1.214;2022-11-12T08:08:51;102325.47;;;8.65;100.00
66381;BME280;53177;52.648;1.214;2022-11-12T08:11:18;102336.25;;;8.78;100.00
66381;BME280;53177;52.648;1.214;2022-11-12T08:13:43;102339.81;;;8.85;100.00
66381;BME280;53177;52.648;1.214;2022-11-12T08:16:11;102334.47;;;8.85;100.00
66381;BME280;53177;52.648;1.214;2022-11-12T08:18:37;102339.66;;;8.94;100.00
66381;BME280;53177;52.648;1.214;2022-11-12T08:21:04;102341.09;;;8.90;100.00
66381;BME280;53177;52.648;1.214;2022-11-12T08:23:30;102343.56;;;8.91;100.00
66381;BME280;53177;52.648;1.214;2022-11-12T08:26:00;102349.13;;;8.90;100.00
66381;BME280;53177;52.648;1.214;2022-11-12T08:28:34;102349.75;;;8.92;100.00
66381;BME280;53177;52.648;1.214;2022-11-12T08:31:12;102347.88;;;8.85;100.00
66381;BME280;53177;52.648;1.214;2022-11-12T08:33:38;102345.56;;;8.82;100.00
66381;BME280;53177;52.648;1.214;2022-11-12T08:36:05;102349.50;;;8.86;100.00
66381;BME280;53177;52.648;1.214;2022-11-12T08:38:31;102349.94;;;8.90;100.00
66381;BME280;53177;52.648;1.214;2022-11-12T08:41:04;102343.94;;;8.88;100.00
66381;BME280;53177;52.648;1.214;2022-11-12T08:43:30;102342.75;;;8.91;100.00
66381;BME280;53177;52.648;1.214;2022-11-12T08:46:00;102349.38;;;9.01;100.00
66381;BME280;53177;52.648;1.214;2022-11-12T08:48:27;102356.84;;;9.06;100.00
66381;BME280;53177;52.648;1.214;2022-11-12T08:50:53;102361.19;;;9.07;100.00
66381;BME280;53177;52.648;1.214;2022-11-12T08:53:21;102358.50;;;9.07;100.00
66381;BME280;53177;52.648;1.214;2022-11-12T08:55:47;102361.41;;;9.12;100.00
66381;BME280;53177;52.648;1.214;2022-11-12T08:58:12;102364.78;;;9.27;100.00
66381;BME280;53177;52.648;1.214;2022-11-12T09:00:40;102369.75;;;9.30;100.00
66381;BME280;53177;52.648;1.214;2022-11-12T09:03:07;102369.38;;;9.33;100.00
66381;BME280;53177;52.648;1.214;2022-11-12T09:05:37;102370.81;;;9.36;100.00
66381;BME280;53177;52.648;1.214;2022-11-12T09:08:08;102374.38;;;9.50;100.00
66381;BME280;53177;52.648;1.214;2022-11-12T09:10:34;102374.41;;;9.56;100.00
66381;BME280;53177;52.648;1.214;2022-11-12T09:13:00;102371.94;;;9.61;100.00
66381;BME280;53177;52.648;1.214;2022-11-12T09:15:26;102376.50;;;9.61;100.00
66381;BME280;53177;52.648;1.214;2022-11-12T09:18:00;102377.31;;;9.68;100.00
66381;BME280;53177;52.648;1.214;2022-11-12T09:20:28;102374.47;;;9.76;100.00
66381;BME280;53177;52.648;1.214;2022-11-12T09:22:59;102381.50;;;9.84;100.00
66381;BME280;53177;52.648;1.214;2022-11-12T09:25:24;102388.78;;;9.97;100.00
66381;BME280;53177;52.648;1.214;2022-11-12T09:27:51;102391.47;;;9.97;100.00
66381;BME280;53177;52.648;1.214;2022-11-12T09:30:17;102390.66;;;10.09;100.00
66381;BME280;53177;52.648;1.214;2022-11-12T09:32:43;102402.03;;;10.11;100.00
66381;BME280;53177;52.648;1.214;2022-11-12T09:35:08;102397.50;;;10.19;100.00
66381;BME280;53177;52.648;1.214;2022-11-12T09:37:36;102398.13;;;10.14;100.00
66381;BME280;53177;52.648;1.214;2022-11-12T09:40:02;102394.19;;;10.17;100.00
66381;BME280;53177;52.648;1.214;2022-11-12T09:42:28;102387.81;;;10.24;100.00
66381;BME280;53177;52.648;1.214;2022-11-12T09:45:16;102387.81;;;10.37;100.00
66381;BME280;53177;52.648;1.214;2022-11-12T09:47:49;102385.34;;;10.43;100.00
66381;BME280;53177;52.648;1.214;2022-11-12T09:50:20;102385.34;;;10.43;100.00
66381;BME280;53177;52.648;1.214;2022-11-12T09:52:51;102387.41;;;10.47;100.00
66381;BME280;53177;52.648;1.214;2022-11-12T09:55:43;102377.50;;;10.48;100.00
66381;BME280;53177;52.648;1.214;2022-11-12T09:58:13;102379.38;;;10.54;100.00
66381;BME280;53177;52.648;1.214;2022-11-12T10:00:45;102374.56;;;10.62;100.00
66381;BME280;53177;52.648;1.214;2022-11-12T10:03:23;102385.75;;;10.73;100.00
66381;BME280;53177;52.648;1.214;2022-11-12T10:08:33;102385.75;;;10.66;100.00
66381;BME280;53177;52.648;1.214;2022-11-12T10:11:18;102369.63;;;10.66;100.00
66381;BME280;53177;52.648;1.214;2022-11-12T10:14:20;102376.03;;;10.78;100.00
66381;BME280;53177;52.648;1.214;2022-11-12T10:16:59;102365.06;;;10.73;100.00
66381;BME280;53177;52.648;1.214;2022-11-12T10:24:35;102367.53;;;10.95;100.00
66381;BME280;53177;52.648;1.214;2022-11-12T10:27:12;102372.91;;;10.95;100.00
66381;BME280;53177;52.648;1.214;2022-11-12T10:29:46;102367.91;;;11.05;100.00
66381;BME280;53177;52.648;1.214;2022-11-12T10:32:14;102379.91;;;11.02;100.00
66381;BME280;53177;52.648;1.214;2022-11-12T10:34:40;102379.72;;;11.04;100.00
66381;BME280;53177;52.648;1.214;2022-11-12T10:39:41;102390.03;;;11.13;100.00
66381;BME280;53177;52.648;1.214;2022-11-12T10:42:09;102385.28;;;11.09;100.00
66381;BME280;53177;52.648;1.214;2022-11-12T10:44:39;102392.31;;;11.10;100.00
66381;BME280;53177;52.648;1.214;2022-11-12T10:47:25;102391.03;;;11.19;100.00
66381;BME280;53177;52.648;1.214;2022-11-12T10:50:15;102391.84;;;11.26;100.00
66381;BME280;53177;52.648;1.214;2022-11-12T10:53:11;102379.44;;;11.25;100.00
66381;BME280;53177;52.648;1.214;2022-11-12T10:56:01;102382.75;;;11.27;100.00
66381;BME280;53177;52.648;1.214;2022-11-12T10:58:28;102382.09;;;11.32;100.00
66381;BME280;53177;52.648;1.214;2022-11-12T11:00:59;102373.63;;;11.35;100.00
66381;BME280;53177;52.648;1.214;2022-11-12T11:03:35;102377.72;;;11.37;100.00
66381;BME280;53177;52.648;1.214;2022-11-12T11:06:05;102380.41;;;11.37;100.00
66381;BME280;53177;52.648;1.214;2022-11-12T11:08:48;102372.78;;;11.34;100.00
66381;BME280;53177;52.648;1.214;2022-11-12T11:11:28;102361.38;;;11.39;100.00
66381;BME280;53177;52.648;1.214;2022-11-12T11:13:55;102351.22;;;11.41;100.00
66381;BME280;53177;52.648;1.214;2022-11-12T11:16:27;102350.34;;;11.47;100.00
66381;BME280;53177;52.648;1.214;2022-11-12T11:18:57;102342.50;;;11.46;100.00
66381;BME280;53177;52.648;1.214;2022-11-12T11:35:30;102315.09;;;11.62;100.00
66381;BME280;53177;52.648;1.214;2022-11-12T11:40:39;102319.00;;;11.66;100.00
66381;BME280;53177;52.648;1.214;2022-11-12T11:43:25;102320.41;;;11.75;100.00
66381;BME280;53177;52.648;1.214;2022-11-12T11:46:15;102323.69;;;11.77;100.00
66381;BME280;53177;52.648;1.214;2022-11-12T11:49:06;102312.91;;;11.77;100.00
66381;BME280;53177;52.648;1.214;2022-11-12T11:56:57;102314.13;;;11.88;100.00
66381;BME280;53177;52.648;1.214;2022-11-12T12:00:03;102314.50;;;11.92;100.00
66381;BME280;53177;52.648;1.214;2022-11-12T12:05:21;102305.34;;;11.99;100.00
66381;BME280;53177;52.648;1.214;2022-11-12T12:08:04;102302.38;;;12.07;100.00
66381;BME280;53177;52.648;1.214;2022-11-12T12:10:59;102297.97;;;12.13;100.00
66381;BME280;53177;52.648;1.214;2022-11-12T12:21:50;102274.78;;;12.37;100.00
66381;BME280;53177;52.648;1.214;2022-11-12T12:24:21;102278.00;;;12.46;100.00
66381;BME280;53177;52.648;1.214;2022-11-12T12:26:57;102269.59;;;12.54;100.00
66381;BME280;53177;52.648;1.214;2022-11-12T12:29:32;102271.28;;;12.55;100.00
66381;BME280;53177;52.648;1.214;2022-11-12T12:32:17;102262.53;;;12.78;100.00
66381;BME280;53177;52.648;1.214;2022-11-12T12:34:55;102249.84;;;12.97;100.00
66381;BME280;53177;52.648;1.214;2022-11-12T12:37:34;102236.72;;;13.00;100.00
66381;BME280;53177;52.648;1.214;2022-11-12T12:45:42;102223.44;;;13.17;100.00
66381;BME280;53177;52.648;1.214;2022-11-12T12:48:20;102222.97;;;13.20;100.00
66381;BME280;53177;52.648;1.214;2022-11-12T12:50:48;102231.28;;;13.37;100.00
66381;BME280;53177;52.648;1.214;2022-11-12T12:53:17;102222.03;;;13.45;100.00
66381;BME280;53177;52.648;1.214;2022-11-12T12:55:56;102225.94;;;13.60;100.00
66381;BME280;53177;52.648;1.214;2022-11-12T12:58:44;102213.38;;;13.66;100.00
66381;BME280;53177;52.648;1.214;2022-11-12T13:04:02;102213.16;;;13.79;100.00
66381;BME280;53177;52.648;1.214;2022-11-12T13:43:02;102160.50;;;14.40;100.00
66381;BME280;53177;52.648;1.214;2022-11-12T13:45:32;102157.31;;;14.44;100.00
66381;BME280;53177;52.648;1.214;2022-11-12T13:47:59;102144.38;;;14.46;100.00
66381;BME280;53177;52.648;1.214;2022-11-12T13:50:30;102146.63;;;14.49;100.00
66381;BME280;53177;52.648;1.214;2022-11-12T13:52:57;102147.81;;;14.53;100.00
66381;BME280;53177;52.648;1.214;2022-11-12T13:55:23;102145.34;;;14.51;100.00
66381;BME280;53177;52.648;1.214;2022-11-12T13:57:50;102145.69;;;14.55;100.00
66381;BME280;53177;52.648;1.214;2022-11-12T14:02:43;102137.44;;;14.61;100.00
66381;BME280;53177;52.648;1.214;2022-11-12T14:05:15;102139.66;;;14.64;100.00
66381;BME280;53177;52.648;1.214;2022-11-12T14:10:36;102134.56;;;14.68;100.00
66381;BME280;53177;52.648;1.214;2022-11-12T14:13:11;102138.94;;;14.69;100.00
66381;BME280;53177;52.648;1.214;2022-11-12T14:16:04;102134.19;;;14.76;100.00
66381;BME280;53177;52.648;1.214;2022-11-12T14:21:38;102141.41;;;14.71;100.00
66381;BME280;53177;52.648;1.214;2022-11-12T14:24:03;102145.63;;;14.78;100.00
66381;BME280;53177;52.648;1.214;2022-11-12T14:26:40;102151.03;;;14.78;100.00
66381;BME280;53177;52.648;1.214;2022-11-12T14:29:13;102147.25;;;14.79;100.00
66381;BME280;53177;52.648;1.214;2022-11-12T14:31:40;102142.31;;;14.76;100.00
66381;BME280;53177;52.648;1.214;2022-11-12T14:34:19;102136.91;;;14.76;100.00
66381;BME280;53177;52.648;1.214;2022-11-12T14:36:45;102134.91;;;14.72;100.00
66381;BME280;53177;52.648;1.214;2022-11-12T14:39:11;102133.38;;;14.76;100.00